• Join FlightAware (Why Join?)
  • Login
  • US Flag 
02:50PM EDT


 

Airport Tracker/Info


-or-


 

Live Flight TrackerFlight Track Log ✈ THY2166 ✈ 05-May-2012 ✈ LTBA / IST - LTAC / ESB

Flight Track Log - Related Links

Times and Time Zones

All times are in EDT time to prevent confusion due to time zone crossing. See the THY2166 flight status page for this flight to view local times or setup timezone preferences in your user account.

Time Position Orientation Groundspeed Altitude Reporting Facility
EDT Latitude Longitude Course Direction KTS MPH feet Rate Location/Type
10:19AM 40.8878 29.3020 104° East  Level Estimated
10:20AM 40.8622 29.4379 104° East  Level Estimated
10:21AM 40.8365 29.5736 104° East  Level Estimated
10:22AM 40.8106 29.7093 104° East  Level Estimated
10:23AM 40.7845 29.8448 104° East  Level Estimated
10:24AM 40.7583 29.9803 104° East  Level Estimated
10:25AM 40.7320 30.1156 104° East  Level Estimated
10:26AM 40.7054 30.2508 105° East  Level Estimated
10:27AM 40.6788 30.3859 105° East  Level Estimated
10:28AM 40.6519 30.5209 105° East  Level Estimated
10:29AM 40.6249 30.6558 105° East  Level Estimated
10:30AM 40.5978 30.7906 105° East  Level Estimated
10:31AM 40.5704 30.9253 105° East  Level Estimated
10:32AM 40.5430 31.0599 105° East  Level Estimated
10:33AM 40.5154 31.1943 105° East  Level Estimated
10:34AM 40.4876 31.3287 105° East  Level Estimated
10:35AM 40.4596 31.4629 105° East  Level Estimated
10:36AM 40.4315 31.5971 105° East  Level Estimated
10:37AM 40.4033 31.7311 106° East  Level Estimated
10:38AM 40.3749 31.8650 106° East  Level Estimated
10:39AM 40.3464 31.9988 106° East  Level Estimated
10:40AM 40.3176 32.1324 106° East  Level Estimated
10:41AM 40.2888 32.2660 106° East  Level Estimated
10:42AM 40.2598 32.3994 106° East  Level Estimated
10:43AM 40.2306 32.5328 106° East  Level Estimated
10:44AM 40.2013 32.6660 106° East  Level Estimated
10:45AM 40.1718 32.7991 106° East  Level Estimated
10:46AM 40.1422 32.9321 106° East  Level Estimated
10:47AM 40.1124 33.0649 286° West  Level Estimated
10:48AM 40.1422 32.9321 106° East  Level Estimated
10:49AM 40.1124 33.0649 286° West  Level Estimated
10:50AM 40.1422 32.9321 106° East  Level Estimated
10:51AM 40.1124 33.0649 286° West  Level Estimated
10:52AM 40.1422 32.9321 106° East  Level Estimated
10:53AM 40.1124 33.0649 286° West  Level Estimated
10:54AM 40.1422 32.9321 106° East  Level Estimated
10:55AM 40.1124 33.0649 286° West  Level Estimated
10:56AM 40.1422 32.9321 106° East  Level Estimated
10:57AM 40.1124 33.0649 286° West  Level Estimated
10:58AM 40.1422 32.9321 106° East  Level Estimated
10:59AM 40.1124 33.0649 286° West  Level Estimated
11:00AM 40.1422 32.9321 106° East  Level Estimated
11:01AM 40.1124 33.0649 286° West  Level Estimated
11:02AM 40.1422 32.9321 286° West  Level Estimated